sensor_id;sensor_type;location;lat;lon;timestamp;P1;durP1;ratioP1;P2;durP2;ratioP2
28070;SDS011;15383;48.408;9.968;2023-12-07T00:02:11;13.57;;;6.85;;
28070;SDS011;15383;48.408;9.968;2023-12-07T00:04:38;15.60;;;6.43;;
28070;SDS011;15383;48.408;9.968;2023-12-07T00:07:03;14.00;;;7.13;;
28070;SDS011;15383;48.408;9.968;2023-12-07T00:09:29;14.93;;;6.03;;
28070;SDS011;15383;48.408;9.968;2023-12-07T00:11:54;13.25;;;7.13;;
28070;SDS011;15383;48.408;9.968;2023-12-07T00:14:20;15.65;;;6.63;;
28070;SDS011;15383;48.408;9.968;2023-12-07T00:16:46;13.85;;;6.35;;
28070;SDS011;15383;48.408;9.968;2023-12-07T00:19:11;10.68;;;5.70;;
28070;SDS011;15383;48.408;9.968;2023-12-07T00:21:37;12.43;;;5.70;;
28070;SDS011;15383;48.408;9.968;2023-12-07T00:24:03;11.20;;;6.05;;
28070;SDS011;15383;48.408;9.968;2023-12-07T00:26:29;10.75;;;5.50;;
28070;SDS011;15383;48.408;9.968;2023-12-07T00:28:54;12.93;;;5.50;;
28070;SDS011;15383;48.408;9.968;2023-12-07T00:31:20;10.50;;;5.13;;
28070;SDS011;15383;48.408;9.968;2023-12-07T00:33:45;9.38;;;4.65;;
28070;SDS011;15383;48.408;9.968;2023-12-07T00:36:11;9.35;;;5.35;;
28070;SDS011;15383;48.408;9.968;2023-12-07T00:38:37;11.07;;;4.78;;
28070;SDS011;15383;48.408;9.968;2023-12-07T00:41:02;8.45;;;4.63;;
28070;SDS011;15383;48.408;9.968;2023-12-07T00:43:28;8.98;;;4.85;;
28070;SDS011;15383;48.408;9.968;2023-12-07T00:45:54;9.10;;;4.53;;
28070;SDS011;15383;48.408;9.968;2023-12-07T00:48:19;13.38;;;5.80;;
28070;SDS011;15383;48.408;9.968;2023-12-07T00:50:45;10.57;;;5.80;;
28070;SDS011;15383;48.408;9.968;2023-12-07T00:53:10;7.97;;;4.63;;
28070;SDS011;15383;48.408;9.968;2023-12-07T00:55:36;12.98;;;5.18;;
28070;SDS011;15383;48.408;9.968;2023-12-07T00:58:01;10.15;;;4.78;;
28070;SDS011;15383;48.408;9.968;2023-12-07T01:00:27;10.40;;;5.10;;
28070;SDS011;15383;48.408;9.968;2023-12-07T01:02:52;9.10;;;5.40;;
28070;SDS011;15383;48.408;9.968;2023-12-07T01:05:18;9.45;;;4.70;;
28070;SDS011;15383;48.408;9.968;2023-12-07T01:07:44;8.13;;;4.80;;
28070;SDS011;15383;48.408;9.968;2023-12-07T01:10:09;7.88;;;4.90;;
28070;SDS011;15383;48.408;9.968;2023-12-07T01:12:35;7.60;;;4.80;;
28070;SDS011;15383;48.408;9.968;2023-12-07T01:15:00;9.48;;;4.22;;
28070;SDS011;15383;48.408;9.968;2023-12-07T01:17:26;7.03;;;4.22;;
28070;SDS011;15383;48.408;9.968;2023-12-07T01:19:52;11.93;;;5.03;;
28070;SDS011;15383;48.408;9.968;2023-12-07T01:22:17;8.95;;;4.07;;
28070;SDS011;15383;48.408;9.968;2023-12-07T01:24:43;8.77;;;4.80;;
28070;SDS011;15383;48.408;9.968;2023-12-07T01:27:09;8.00;;;4.03;;
28070;SDS011;15383;48.408;9.968;2023-12-07T01:29:34;5.40;;;3.95;;
28070;SDS011;15383;48.408;9.968;2023-12-07T01:32:00;10.30;;;4.38;;
28070;SDS011;15383;48.408;9.968;2023-12-07T01:34:25;13.27;;;4.38;;
28070;SDS011;15383;48.408;9.968;2023-12-07T01:36:51;8.52;;;4.40;;
28070;SDS011;15383;48.408;9.968;2023-12-07T01:39:16;6.35;;;4.22;;
28070;SDS011;15383;48.408;9.968;2023-12-07T01:41:42;6.75;;;4.00;;
28070;SDS011;15383;48.408;9.968;2023-12-07T01:44:08;11.27;;;4.80;;
28070;SDS011;15383;48.408;9.968;2023-12-07T01:46:34;8.05;;;4.45;;
28070;SDS011;15383;48.408;9.968;2023-12-07T01:49:00;8.25;;;4.78;;
28070;SDS011;15383;48.408;9.968;2023-12-07T01:51:26;6.88;;;3.92;;
28070;SDS011;15383;48.408;9.968;2023-12-07T01:53:53;8.05;;;5.15;;
28070;SDS011;15383;48.408;9.968;2023-12-07T01:56:19;6.90;;;4.07;;
28070;SDS011;15383;48.408;9.968;2023-12-07T01:58:45;6.53;;;4.13;;
28070;SDS011;15383;48.408;9.968;2023-12-07T02:01:11;8.98;;;5.10;;
28070;SDS011;15383;48.408;9.968;2023-12-07T02:03:40;9.75;;;4.57;;
28070;SDS011;15383;48.408;9.968;2023-12-07T02:06:06;6.28;;;4.18;;
28070;SDS011;15383;48.408;9.968;2023-12-07T02:08:33;8.57;;;5.13;;
28070;SDS011;15383;48.408;9.968;2023-12-07T02:10:59;8.82;;;4.90;;
28070;SDS011;15383;48.408;9.968;2023-12-07T02:13:25;10.30;;;4.88;;
28070;SDS011;15383;48.408;9.968;2023-12-07T02:15:51;7.72;;;4.43;;
28070;SDS011;15383;48.408;9.968;2023-12-07T02:20:52;7.55;;;5.00;;
28070;SDS011;15383;48.408;9.968;2023-12-07T02:23:29;9.45;;;4.88;;
28070;SDS011;15383;48.408;9.968;2023-12-07T02:25:57;9.07;;;4.78;;
28070;SDS011;15383;48.408;9.968;2023-12-07T02:28:27;7.65;;;4.57;;
28070;SDS011;15383;48.408;9.968;2023-12-07T02:30:53;10.70;;;5.53;;
28070;SDS011;15383;48.408;9.968;2023-12-07T02:33:18;9.95;;;4.53;;
28070;SDS011;15383;48.408;9.968;2023-12-07T02:35:44;12.90;;;5.28;;
28070;SDS011;15383;48.408;9.968;2023-12-07T02:38:10;11.68;;;4.95;;
28070;SDS011;15383;48.408;9.968;2023-12-07T02:40:36;8.63;;;4.75;;
28070;SDS011;15383;48.408;9.968;2023-12-07T02:43:03;8.27;;;5.10;;
28070;SDS011;15383;48.408;9.968;2023-12-07T02:45:29;9.57;;;5.18;;
28070;SDS011;15383;48.408;9.968;2023-12-07T02:47:57;12.02;;;5.55;;
28070;SDS011;15383;48.408;9.968;2023-12-07T02:50:23;10.18;;;5.60;;
28070;SDS011;15383;48.408;9.968;2023-12-07T02:52:48;11.40;;;6.10;;
28070;SDS011;15383;48.408;9.968;2023-12-07T02:55:14;9.95;;;4.97;;
28070;SDS011;15383;48.408;9.968;2023-12-07T02:57:40;11.57;;;5.70;;
28070;SDS011;15383;48.408;9.968;2023-12-07T03:00:05;11.60;;;5.53;;
28070;SDS011;15383;48.408;9.968;2023-12-07T03:02:36;8.95;;;5.25;;
28070;SDS011;15383;48.408;9.968;2023-12-07T03:05:04;10.63;;;5.22;;
28070;SDS011;15383;48.408;9.968;2023-12-07T03:07:30;10.70;;;5.07;;
28070;SDS011;15383;48.408;9.968;2023-12-07T03:09:58;10.07;;;5.65;;
28070;SDS011;15383;48.408;9.968;2023-12-07T03:12:23;11.20;;;5.45;;
28070;SDS011;15383;48.408;9.968;2023-12-07T03:14:49;10.63;;;5.43;;
28070;SDS011;15383;48.408;9.968;2023-12-07T03:17:14;11.95;;;6.25;;
28070;SDS011;15383;48.408;9.968;2023-12-07T03:19:40;11.90;;;5.55;;
28070;SDS011;15383;48.408;9.968;2023-12-07T03:22:06;12.68;;;6.15;;
28070;SDS011;15383;48.408;9.968;2023-12-07T03:24:34;9.23;;;5.10;;
28070;SDS011;15383;48.408;9.968;2023-12-07T03:27:00;11.40;;;6.05;;
28070;SDS011;15383;48.408;9.968;2023-12-07T03:29:25;9.65;;;5.68;;
28070;SDS011;15383;48.408;9.968;2023-12-07T03:31:51;12.60;;;6.30;;
28070;SDS011;15383;48.408;9.968;2023-12-07T03:34:16;8.52;;;5.22;;
28070;SDS011;15383;48.408;9.968;2023-12-07T03:36:45;12.05;;;6.20;;
28070;SDS011;15383;48.408;9.968;2023-12-07T03:39:11;10.82;;;5.55;;
28070;SDS011;15383;48.408;9.968;2023-12-07T03:41:38;11.25;;;6.30;;
28070;SDS011;15383;48.408;9.968;2023-12-07T03:44:03;11.88;;;5.53;;
28070;SDS011;15383;48.408;9.968;2023-12-07T03:46:29;8.98;;;5.85;;
28070;SDS011;15383;48.408;9.968;2023-12-07T03:48:54;11.20;;;5.60;;
28070;SDS011;15383;48.408;9.968;2023-12-07T03:51:20;10.35;;;6.13;;
28070;SDS011;15383;48.408;9.968;2023-12-07T03:53:45;9.75;;;5.63;;
28070;SDS011;15383;48.408;9.968;2023-12-07T03:56:21;10.07;;;6.03;;
28070;SDS011;15383;48.408;9.968;2023-12-07T03:58:48;10.00;;;5.90;;
28070;SDS011;15383;48.408;9.968;2023-12-07T04:01:13;9.80;;;4.88;;
28070;SDS011;15383;48.408;9.968;2023-12-07T04:03:39;9.70;;;5.43;;
28070;SDS011;15383;48.408;9.968;2023-12-07T04:06:04;11.50;;;5.90;;
28070;SDS011;15383;48.408;9.968;2023-12-07T04:08:30;7.95;;;4.68;;
28070;SDS011;15383;48.408;9.968;2023-12-07T04:10:55;8.18;;;5.03;;
28070;SDS011;15383;48.408;9.968;2023-12-07T04:13:21;11.32;;;5.63;;
28070;SDS011;15383;48.408;9.968;2023-12-07T04:15:46;11.65;;;5.43;;
28070;SDS011;15383;48.408;9.968;2023-12-07T04:18:12;8.98;;;5.00;;
28070;SDS011;15383;48.408;9.968;2023-12-07T04:20:37;15.52;;;5.40;;
28070;SDS011;15383;48.408;9.968;2023-12-07T04:23:03;8.00;;;4.75;;
28070;SDS011;15383;48.408;9.968;2023-12-07T04:25:28;8.32;;;4.90;;
28070;SDS011;15383;48.408;9.968;2023-12-07T04:27:54;11.75;;;5.50;;
28070;SDS011;15383;48.408;9.968;2023-12-07T04:30:19;9.90;;;5.32;;
28070;SDS011;15383;48.408;9.968;2023-12-07T04:32:45;9.15;;;5.15;;
28070;SDS011;15383;48.408;9.968;2023-12-07T04:35:10;8.50;;;4.97;;
28070;SDS011;15383;48.408;9.968;2023-12-07T04:37:36;9.25;;;5.47;;
28070;SDS011;15383;48.408;9.968;2023-12-07T04:40:02;7.30;;;4.53;;
28070;SDS011;15383;48.408;9.968;2023-12-07T04:42:29;7.78;;;5.15;;
28070;SDS011;15383;48.408;9.968;2023-12-07T04:44:55;8.23;;;4.90;;
28070;SDS011;15383;48.408;9.968;2023-12-07T04:47:21;9.18;;;4.57;;
28070;SDS011;15383;48.408;9.968;2023-12-07T04:49:47;10.55;;;5.43;;
28070;SDS011;15383;48.408;9.968;2023-12-07T04:52:13;11.60;;;5.75;;
28070;SDS011;15383;48.408;9.968;2023-12-07T04:54:38;8.48;;;5.18;;
28070;SDS011;15383;48.408;9.968;2023-12-07T04:57:04;8.85;;;4.70;;
28070;SDS011;15383;48.408;9.968;2023-12-07T04:59:29;7.78;;;4.97;;
28070;SDS011;15383;48.408;9.968;2023-12-07T05:01:55;11.02;;;5.28;;
28070;SDS011;15383;48.408;9.968;2023-12-07T05:04:20;9.57;;;5.13;;
28070;SDS011;15383;48.408;9.968;2023-12-07T05:06:46;10.25;;;5.10;;
28070;SDS011;15383;48.408;9.968;2023-12-07T05:09:12;9.30;;;4.88;;
28070;SDS011;15383;48.408;9.968;2023-12-07T05:11:37;11.55;;;5.05;;
28070;SDS011;15383;48.408;9.968;2023-12-07T05:14:03;12.18;;;5.35;;
28070;SDS011;15383;48.408;9.968;2023-12-07T05:16:28;11.43;;;5.45;;
28070;SDS011;15383;48.408;9.968;2023-12-07T05:18:54;11.52;;;5.50;;
28070;SDS011;15383;48.408;9.968;2023-12-07T05:21:20;10.20;;;5.03;;
28070;SDS011;15383;48.408;9.968;2023-12-07T05:23:46;12.07;;;5.95;;
28070;SDS011;15383;48.408;9.968;2023-12-07T05:26:11;10.57;;;5.75;;
28070;SDS011;15383;48.408;9.968;2023-12-07T05:28:37;8.85;;;5.15;;
28070;SDS011;15383;48.408;9.968;2023-12-07T05:31:03;9.70;;;5.18;;
28070;SDS011;15383;48.408;9.968;2023-12-07T05:33:29;11.18;;;4.70;;
28070;SDS011;15383;48.408;9.968;2023-12-07T05:35:54;8.18;;;4.75;;
28070;SDS011;15383;48.408;9.968;2023-12-07T05:38:20;9.05;;;5.35;;
28070;SDS011;15383;48.408;9.968;2023-12-07T05:40:45;11.30;;;5.38;;
28070;SDS011;15383;48.408;9.968;2023-12-07T05:43:11;7.57;;;5.15;;
28070;SDS011;15383;48.408;9.968;2023-12-07T05:45:36;10.73;;;5.90;;
28070;SDS011;15383;48.408;9.968;2023-12-07T05:48:02;8.93;;;4.82;;
28070;SDS011;15383;48.408;9.968;2023-12-07T05:50:27;14.15;;;5.53;;
28070;SDS011;15383;48.408;9.968;2023-12-07T05:52:53;11.07;;;5.05;;
28070;SDS011;15383;48.408;9.968;2023-12-07T05:55:20;11.05;;;5.32;;
28070;SDS011;15383;48.408;9.968;2023-12-07T05:57:45;10.30;;;5.55;;
28070;SDS011;15383;48.408;9.968;2023-12-07T06:00:11;9.18;;;5.65;;
28070;SDS011;15383;48.408;9.968;2023-12-07T06:02:37;7.68;;;4.72;;
28070;SDS011;15383;48.408;9.968;2023-12-07T06:05:03;8.63;;;5.20;;
28070;SDS011;15383;48.408;9.968;2023-12-07T06:07:30;9.23;;;5.60;;
28070;SDS011;15383;48.408;9.968;2023-12-07T06:09:55;13.32;;;5.40;;
28070;SDS011;15383;48.408;9.968;2023-12-07T06:12:21;7.47;;;4.95;;
28070;SDS011;15383;48.408;9.968;2023-12-07T06:14:47;10.95;;;5.85;;
28070;SDS011;15383;48.408;9.968;2023-12-07T06:17:13;10.50;;;5.75;;
28070;SDS011;15383;48.408;9.968;2023-12-07T06:19:39;9.45;;;5.60;;
28070;SDS011;15383;48.408;9.968;2023-12-07T06:22:04;10.07;;;5.97;;
28070;SDS011;15383;48.408;9.968;2023-12-07T06:24:31;10.18;;;5.68;;
28070;SDS011;15383;48.408;9.968;2023-12-07T06:26:57;11.80;;;6.00;;
28070;SDS011;15383;48.408;9.968;2023-12-07T06:29:23;9.10;;;5.40;;
28070;SDS011;15383;48.408;9.968;2023-12-07T06:31:48;8.88;;;5.43;;
28070;SDS011;15383;48.408;9.968;2023-12-07T06:34:14;10.95;;;5.75;;
28070;SDS011;15383;48.408;9.968;2023-12-07T06:36:39;10.13;;;5.72;;
28070;SDS011;15383;48.408;9.968;2023-12-07T06:39:05;12.00;;;6.05;;
28070;SDS011;15383;48.408;9.968;2023-12-07T06:41:30;11.70;;;6.07;;
28070;SDS011;15383;48.408;9.968;2023-12-07T06:43:56;9.88;;;5.13;;
28070;SDS011;15383;48.408;9.968;2023-12-07T06:46:22;11.20;;;6.35;;
28070;SDS011;15383;48.408;9.968;2023-12-07T06:48:47;11.77;;;5.50;;
28070;SDS011;15383;48.408;9.968;2023-12-07T06:51:13;9.10;;;5.82;;
28070;SDS011;15383;48.408;9.968;2023-12-07T06:53:39;12.63;;;6.28;;
28070;SDS011;15383;48.408;9.968;2023-12-07T06:56:06;8.50;;;5.22;;
28070;SDS011;15383;48.408;9.968;2023-12-07T06:58:32;11.98;;;6.53;;
28070;SDS011;15383;48.408;9.968;2023-12-07T07:00:58;12.60;;;6.25;;
28070;SDS011;15383;48.408;9.968;2023-12-07T07:03:23;11.02;;;6.32;;
28070;SDS011;15383;48.408;9.968;2023-12-07T07:05:49;11.02;;;5.70;;
28070;SDS011;15383;48.408;9.968;2023-12-07T07:08:15;12.45;;;5.72;;
28070;SDS011;15383;48.408;9.968;2023-12-07T07:10:41;14.77;;;6.10;;
28070;SDS011;15383;48.408;9.968;2023-12-07T07:13:06;10.10;;;6.22;;
28070;SDS011;15383;48.408;9.968;2023-12-07T07:15:32;14.32;;;6.53;;
28070;SDS011;15383;48.408;9.968;2023-12-07T07:17:58;12.32;;;6.65;;
28070;SDS011;15383;48.408;9.968;2023-12-07T07:20:24;12.02;;;6.65;;
28070;SDS011;15383;48.408;9.968;2023-12-07T07:22:51;12.57;;;6.75;;
28070;SDS011;15383;48.408;9.968;2023-12-07T07:25:16;12.10;;;6.25;;
28070;SDS011;15383;48.408;9.968;2023-12-07T07:27:44;15.13;;;7.18;;
28070;SDS011;15383;48.408;9.968;2023-12-07T07:30:13;9.95;;;6.03;;
28070;SDS011;15383;48.408;9.968;2023-12-07T07:32:39;11.52;;;7.15;;
28070;SDS011;15383;48.408;9.968;2023-12-07T07:35:05;15.38;;;6.53;;
28070;SDS011;15383;48.408;9.968;2023-12-07T07:37:31;13.15;;;5.90;;
28070;SDS011;15383;48.408;9.968;2023-12-07T07:39:56;13.02;;;6.63;;
28070;SDS011;15383;48.408;9.968;2023-12-07T07:42:22;11.98;;;6.55;;
28070;SDS011;15383;48.408;9.968;2023-12-07T07:44:47;10.80;;;6.25;;
28070;SDS011;15383;48.408;9.968;2023-12-07T07:47:13;14.90;;;6.72;;
28070;SDS011;15383;48.408;9.968;2023-12-07T07:49:38;15.23;;;6.78;;
28070;SDS011;15383;48.408;9.968;2023-12-07T07:52:04;13.00;;;6.95;;
28070;SDS011;15383;48.408;9.968;2023-12-07T07:54:30;10.93;;;6.57;;
28070;SDS011;15383;48.408;9.968;2023-12-07T07:56:56;13.50;;;7.40;;
28070;SDS011;15383;48.408;9.968;2023-12-07T07:59:21;12.32;;;6.57;;
28070;SDS011;15383;48.408;9.968;2023-12-07T08:01:47;14.98;;;7.18;;
28070;SDS011;15383;48.408;9.968;2023-12-07T08:04:12;15.13;;;6.78;;
28070;SDS011;15383;48.408;9.968;2023-12-07T08:06:38;13.20;;;7.53;;
28070;SDS011;15383;48.408;9.968;2023-12-07T08:09:04;13.43;;;7.00;;
28070;SDS011;15383;48.408;9.968;2023-12-07T08:11:29;15.77;;;7.45;;
28070;SDS011;15383;48.408;9.968;2023-12-07T08:13:55;13.30;;;7.28;;
28070;SDS011;15383;48.408;9.968;2023-12-07T08:16:21;12.63;;;7.65;;
28070;SDS011;15383;48.408;9.968;2023-12-07T08:18:47;14.60;;;7.80;;
28070;SDS011;15383;48.408;9.968;2023-12-07T08:21:22;14.95;;;7.18;;
28070;SDS011;15383;48.408;9.968;2023-12-07T08:23:49;15.50;;;7.63;;
28070;SDS011;15383;48.408;9.968;2023-12-07T08:26:14;12.82;;;7.38;;
28070;SDS011;15383;48.408;9.968;2023-12-07T08:28:41;11.48;;;6.50;;
28070;SDS011;15383;48.408;9.968;2023-12-07T08:31:06;15.43;;;7.53;;
28070;SDS011;15383;48.408;9.968;2023-12-07T08:33:32;18.08;;;7.68;;
28070;SDS011;15383;48.408;9.968;2023-12-07T08:36:01;13.68;;;6.82;;
28070;SDS011;15383;48.408;9.968;2023-12-07T08:38:27;13.60;;;7.75;;
28070;SDS011;15383;48.408;9.968;2023-12-07T08:40:53;17.77;;;8.07;;
28070;SDS011;15383;48.408;9.968;2023-12-07T08:43:22;14.13;;;7.45;;
28070;SDS011;15383;48.408;9.968;2023-12-07T08:45:51;12.32;;;7.65;;
28070;SDS011;15383;48.408;9.968;2023-12-07T08:48:17;16.38;;;7.85;;
28070;SDS011;15383;48.408;9.968;2023-12-07T08:50:46;15.02;;;7.57;;
28070;SDS011;15383;48.408;9.968;2023-12-07T08:53:11;19.02;;;8.43;;
28070;SDS011;15383;48.408;9.968;2023-12-07T08:55:37;17.75;;;7.60;;
28070;SDS011;15383;48.408;9.968;2023-12-07T08:58:03;17.58;;;8.27;;
28070;SDS011;15383;48.408;9.968;2023-12-07T09:00:34;17.73;;;7.63;;
28070;SDS011;15383;48.408;9.968;2023-12-07T09:03:00;20.80;;;8.65;;
28070;SDS011;15383;48.408;9.968;2023-12-07T09:05:27;16.15;;;7.45;;
28070;SDS011;15383;48.408;9.968;2023-12-07T09:07:52;18.25;;;8.98;;
28070;SDS011;15383;48.408;9.968;2023-12-07T09:10:18;13.25;;;7.43;;
28070;SDS011;15383;48.408;9.968;2023-12-07T09:12:44;17.77;;;8.35;;
28070;SDS011;15383;48.408;9.968;2023-12-07T09:15:10;18.60;;;8.25;;
28070;SDS011;15383;48.408;9.968;2023-12-07T09:17:36;14.70;;;8.00;;
28070;SDS011;15383;48.408;9.968;2023-12-07T09:20:09;13.15;;;7.38;;
28070;SDS011;15383;48.408;9.968;2023-12-07T09:22:37;17.52;;;8.40;;
28070;SDS011;15383;48.408;9.968;2023-12-07T09:25:06;14.90;;;8.50;;
28070;SDS011;15383;48.408;9.968;2023-12-07T09:27:33;17.70;;;8.60;;
28070;SDS011;15383;48.408;9.968;2023-12-07T09:30:00;14.05;;;8.45;;
28070;SDS011;15383;48.408;9.968;2023-12-07T09:32:26;17.00;;;8.20;;
28070;SDS011;15383;48.408;9.968;2023-12-07T09:34:53;15.23;;;8.20;;
28070;SDS011;15383;48.408;9.968;2023-12-07T09:37:18;18.25;;;8.38;;
28070;SDS011;15383;48.408;9.968;2023-12-07T09:39:44;13.50;;;7.65;;
28070;SDS011;15383;48.408;9.968;2023-12-07T09:42:10;18.73;;;8.63;;
28070;SDS011;15383;48.408;9.968;2023-12-07T09:44:35;13.93;;;8.13;;
28070;SDS011;15383;48.408;9.968;2023-12-07T09:47:01;15.73;;;7.97;;
28070;SDS011;15383;48.408;9.968;2023-12-07T09:49:27;15.38;;;7.72;;
28070;SDS011;15383;48.408;9.968;2023-12-07T09:51:52;15.50;;;7.70;;
28070;SDS011;15383;48.408;9.968;2023-12-07T09:54:21;15.88;;;8.18;;
28070;SDS011;15383;48.408;9.968;2023-12-07T09:56:47;13.85;;;8.02;;
28070;SDS011;15383;48.408;9.968;2023-12-07T09:59:12;15.43;;;7.65;;
28070;SDS011;15383;48.408;9.968;2023-12-07T10:01:38;14.07;;;7.20;;
28070;SDS011;15383;48.408;9.968;2023-12-07T10:06:47;13.27;;;7.63;;
28070;SDS011;15383;48.408;9.968;2023-12-07T10:09:14;15.10;;;7.97;;
28070;SDS011;15383;48.408;9.968;2023-12-07T10:11:40;15.88;;;8.60;;
28070;SDS011;15383;48.408;9.968;2023-12-07T10:14:06;16.25;;;7.53;;
28070;SDS011;15383;48.408;9.968;2023-12-07T10:16:32;18.38;;;8.23;;
28070;SDS011;15383;48.408;9.968;2023-12-07T10:19:16;17.77;;;8.88;;
28070;SDS011;15383;48.408;9.968;2023-12-07T10:21:47;15.10;;;8.25;;
28070;SDS011;15383;48.408;9.968;2023-12-07T10:24:17;18.58;;;8.60;;
28070;SDS011;15383;48.408;9.968;2023-12-07T10:26:44;15.45;;;8.23;;
28070;SDS011;15383;48.408;9.968;2023-12-07T10:29:11;16.33;;;8.75;;
28070;SDS011;15383;48.408;9.968;2023-12-07T10:31:36;16.17;;;9.18;;
28070;SDS011;15383;48.408;9.968;2023-12-07T10:34:02;15.15;;;8.50;;
28070;SDS011;15383;48.408;9.968;2023-12-07T10:36:29;19.35;;;8.88;;
28070;SDS011;15383;48.408;9.968;2023-12-07T10:38:55;18.63;;;8.90;;
28070;SDS011;15383;48.408;9.968;2023-12-07T10:41:21;21.65;;;9.45;;
28070;SDS011;15383;48.408;9.968;2023-12-07T10:43:52;22.25;;;9.65;;
28070;SDS011;15383;48.408;9.968;2023-12-07T10:46:29;17.05;;;7.53;;
28070;SDS011;15383;48.408;9.968;2023-12-07T10:49:01;18.00;;;9.25;;
28070;SDS011;15383;48.408;9.968;2023-12-07T10:51:41;16.40;;;8.45;;
28070;SDS011;15383;48.408;9.968;2023-12-07T10:54:10;15.27;;;8.38;;
28070;SDS011;15383;48.408;9.968;2023-12-07T10:56:40;18.02;;;8.93;;
28070;SDS011;15383;48.408;9.968;2023-12-07T10:59:09;15.55;;;8.95;;
28070;SDS011;15383;48.408;9.968;2023-12-07T11:01:39;16.77;;;8.38;;
28070;SDS011;15383;48.408;9.968;2023-12-07T11:04:06;15.65;;;8.38;;
28070;SDS011;15383;48.408;9.968;2023-12-07T11:06:35;17.00;;;8.27;;
28070;SDS011;15383;48.408;9.968;2023-12-07T11:09:02;15.30;;;8.48;;
28070;SDS011;15383;48.408;9.968;2023-12-07T11:11:47;16.90;;;9.00;;
28070;SDS011;15383;48.408;9.968;2023-12-07T11:14:17;16.80;;;7.90;;
28070;SDS011;15383;48.408;9.968;2023-12-07T11:16:45;19.90;;;9.57;;
28070;SDS011;15383;48.408;9.968;2023-12-07T11:21:59;18.27;;;8.60;;
28070;SDS011;15383;48.408;9.968;2023-12-07T11:24:25;19.67;;;8.02;;
28070;SDS011;15383;48.408;9.968;2023-12-07T11:26:54;14.50;;;7.90;;
28070;SDS011;15383;48.408;9.968;2023-12-07T11:29:20;16.30;;;8.55;;
28070;SDS011;15383;48.408;9.968;2023-12-07T11:31:48;16.95;;;8.80;;
28070;SDS011;15383;48.408;9.968;2023-12-07T11:34:13;16.13;;;8.30;;
28070;SDS011;15383;48.408;9.968;2023-12-07T11:36:54;14.07;;;8.07;;
28070;SDS011;15383;48.408;9.968;2023-12-07T11:39:21;14.13;;;8.52;;
28070;SDS011;15383;48.408;9.968;2023-12-07T11:41:51;14.15;;;7.75;;
28070;SDS011;15383;48.408;9.968;2023-12-07T11:44:19;17.30;;;8.40;;
28070;SDS011;15383;48.408;9.968;2023-12-07T11:46:45;7.45;;;3.58;;
28070;SDS011;15383;48.408;9.968;2023-12-07T11:49:11;8.05;;;3.83;;
28070;SDS011;15383;48.408;9.968;2023-12-07T11:51:37;6.70;;;3.63;;
28070;SDS011;15383;48.408;9.968;2023-12-07T11:54:03;6.10;;;3.42;;
28070;SDS011;15383;48.408;9.968;2023-12-07T11:56:29;9.63;;;3.70;;
28070;SDS011;15383;48.408;9.968;2023-12-07T11:58:55;5.93;;;3.28;;
28070;SDS011;15383;48.408;9.968;2023-12-07T12:01:24;7.60;;;3.72;;
28070;SDS011;15383;48.408;9.968;2023-12-07T12:03:49;6.68;;;3.60;;
28070;SDS011;15383;48.408;9.968;2023-12-07T12:06:15;6.13;;;3.72;;
28070;SDS011;15383;48.408;9.968;2023-12-07T12:08:41;9.60;;;4.05;;
28070;SDS011;15383;48.408;9.968;2023-12-07T12:11:09;8.13;;;3.42;;
28070;SDS011;15383;48.408;9.968;2023-12-07T12:13:36;6.07;;;3.83;;
28070;SDS011;15383;48.408;9.968;2023-12-07T12:16:02;6.00;;;3.75;;
28070;SDS011;15383;48.408;9.968;2023-12-07T12:18:29;7.03;;;3.58;;
28070;SDS011;15383;48.408;9.968;2023-12-07T12:20:54;7.07;;;4.35;;
28070;SDS011;15383;48.408;9.968;2023-12-07T12:23:22;8.48;;;4.30;;
28070;SDS011;15383;48.408;9.968;2023-12-07T12:25:47;9.20;;;4.07;;
28070;SDS011;15383;48.408;9.968;2023-12-07T12:28:15;10.85;;;4.05;;
28070;SDS011;15383;48.408;9.968;2023-12-07T12:30:43;9.35;;;4.50;;
28070;SDS011;15383;48.408;9.968;2023-12-07T12:33:09;9.00;;;5.53;;
28070;SDS011;15383;48.408;9.968;2023-12-07T12:35:34;7.47;;;5.25;;
28070;SDS011;15383;48.408;9.968;2023-12-07T12:38:00;11.50;;;5.55;;
28070;SDS011;15383;48.408;9.968;2023-12-07T12:40:27;12.70;;;6.63;;
28070;SDS011;15383;48.408;9.968;2023-12-07T12:42:56;15.02;;;6.95;;
28070;SDS011;15383;48.408;9.968;2023-12-07T12:45:23;13.77;;;7.35;;
28070;SDS011;15383;48.408;9.968;2023-12-07T12:47:49;15.32;;;7.47;;
28070;SDS011;15383;48.408;9.968;2023-12-07T12:52:59;14.90;;;8.80;;
28070;SDS011;15383;48.408;9.968;2023-12-07T12:55:30;15.38;;;9.18;;
28070;SDS011;15383;48.408;9.968;2023-12-07T12:57:56;24.25;;;9.57;;
28070;SDS011;15383;48.408;9.968;2023-12-07T13:00:26;18.40;;;9.13;;
28070;SDS011;15383;48.408;9.968;2023-12-07T13:02:52;22.05;;;9.40;;
28070;SDS011;15383;48.408;9.968;2023-12-07T13:05:17;22.25;;;9.73;;
28070;SDS011;15383;48.408;9.968;2023-12-07T13:07:46;20.05;;;8.93;;
28070;SDS011;15383;48.408;9.968;2023-12-07T13:10:14;19.90;;;8.57;;
28070;SDS011;15383;48.408;9.968;2023-12-07T13:12:40;17.77;;;9.85;;
28070;SDS011;15383;48.408;9.968;2023-12-07T13:15:06;24.88;;;10.80;;
28070;SDS011;15383;48.408;9.968;2023-12-07T13:17:32;19.63;;;9.75;;
28070;SDS011;15383;48.408;9.968;2023-12-07T13:19:57;23.77;;;10.32;;
28070;SDS011;15383;48.408;9.968;2023-12-07T13:22:23;21.00;;;10.07;;
28070;SDS011;15383;48.408;9.968;2023-12-07T13:24:48;19.40;;;10.63;;
28070;SDS011;15383;48.408;9.968;2023-12-07T13:27:17;20.25;;;10.25;;
28070;SDS011;15383;48.408;9.968;2023-12-07T13:29:43;21.90;;;10.35;;
28070;SDS011;15383;48.408;9.968;2023-12-07T13:32:10;22.25;;;10.18;;
28070;SDS011;15383;48.408;9.968;2023-12-07T13:34:36;20.98;;;9.40;;
28070;SDS011;15383;48.408;9.968;2023-12-07T13:37:03;19.98;;;10.15;;
28070;SDS011;15383;48.408;9.968;2023-12-07T13:39:29;21.80;;;10.98;;
28070;SDS011;15383;48.408;9.968;2023-12-07T13:41:55;22.92;;;10.43;;
28070;SDS011;15383;48.408;9.968;2023-12-07T13:44:21;23.13;;;11.30;;
28070;SDS011;15383;48.408;9.968;2023-12-07T13:46:49;24.45;;;12.02;;
28070;SDS011;15383;48.408;9.968;2023-12-07T13:49:14;23.65;;;11.50;;
28070;SDS011;15383;48.408;9.968;2023-12-07T13:51:40;22.83;;;11.45;;
28070;SDS011;15383;48.408;9.968;2023-12-07T13:54:06;23.92;;;10.23;;
28070;SDS011;15383;48.408;9.968;2023-12-07T13:56:33;23.92;;;10.38;;
28070;SDS011;15383;48.408;9.968;2023-12-07T13:59:00;22.90;;;11.90;;
28070;SDS011;15383;48.408;9.968;2023-12-07T14:01:25;20.30;;;10.57;;
28070;SDS011;15383;48.408;9.968;2023-12-07T14:03:51;25.00;;;10.52;;
28070;SDS011;15383;48.408;9.968;2023-12-07T14:06:23;21.40;;;9.02;;
28070;SDS011;15383;48.408;9.968;2023-12-07T14:08:50;21.42;;;10.90;;
28070;SDS011;15383;48.408;9.968;2023-12-07T14:11:18;18.80;;;9.25;;
28070;SDS011;15383;48.408;9.968;2023-12-07T14:13:44;16.70;;;8.57;;
28070;SDS011;15383;48.408;9.968;2023-12-07T14:16:13;18.63;;;8.90;;
28070;SDS011;15383;48.408;9.968;2023-12-07T14:18:39;21.95;;;9.15;;
28070;SDS011;15383;48.408;9.968;2023-12-07T14:21:05;26.27;;;8.93;;
28070;SDS011;15383;48.408;9.968;2023-12-07T14:23:31;17.60;;;9.43;;
28070;SDS011;15383;48.408;9.968;2023-12-07T14:25:56;16.95;;;8.68;;
28070;SDS011;15383;48.408;9.968;2023-12-07T14:28:26;14.60;;;7.88;;
28070;SDS011;15383;48.408;9.968;2023-12-07T14:30:55;19.83;;;8.35;;
28070;SDS011;15383;48.408;9.968;2023-12-07T14:33:24;18.05;;;8.50;;
28070;SDS011;15383;48.408;9.968;2023-12-07T14:35:50;18.70;;;8.68;;
28070;SDS011;15383;48.408;9.968;2023-12-07T14:38:15;18.48;;;8.07;;
28070;SDS011;15383;48.408;9.968;2023-12-07T14:40:41;15.38;;;8.00;;
28070;SDS011;15383;48.408;9.968;2023-12-07T14:43:06;13.75;;;7.82;;
28070;SDS011;15383;48.408;9.968;2023-12-07T14:45:32;13.40;;;7.63;;